createdAt,value
2023-02-09T00:00:18.628Z,5.43
2023-02-09T00:02:45.707Z,5.32
2023-02-09T00:05:12.924Z,5.13
2023-02-09T00:07:40.016Z,5.15
2023-02-09T00:10:07.261Z,6.38
2023-02-09T00:12:52.886Z,5.47
2023-02-09T00:15:19.959Z,5.68
2023-02-09T00:17:46.984Z,5.80
2023-02-09T00:20:14.054Z,6.60
2023-02-09T00:22:41.337Z,6.05
2023-02-09T00:25:08.373Z,4.90
2023-02-09T00:27:35.858Z,5.35
2023-02-09T00:30:03.118Z,5.70
2023-02-09T00:32:32.593Z,5.53
2023-02-09T00:34:59.684Z,6.03
2023-02-09T00:37:26.729Z,5.40
2023-02-09T00:39:53.814Z,5.03
2023-02-09T00:42:23.176Z,6.13
2023-02-09T00:44:50.473Z,5.43
2023-02-09T00:47:17.541Z,5.57
2023-02-09T00:49:44.621Z,5.50
2023-02-09T00:52:11.868Z,5.82
2023-02-09T00:54:39.008Z,5.85
2023-02-09T00:57:06.263Z,5.20
2023-02-09T00:59:35.169Z,6.82
2023-02-09T01:02:02.925Z,6.70
2023-02-09T01:04:30.040Z,5.22
2023-02-09T01:06:57.217Z,5.32
2023-02-09T01:09:25.077Z,5.38
2023-02-09T01:11:52.158Z,5.65
2023-02-09T01:14:19.250Z,5.63
2023-02-09T01:16:46.493Z,4.80
2023-02-09T01:19:14.153Z,5.90
2023-02-09T01:21:42.453Z,4.88
2023-02-09T01:24:13.757Z,5.10
2023-02-09T01:26:41.738Z,5.50
2023-02-09T01:29:13.131Z,5.78
2023-02-09T01:31:40.733Z,5.57
2023-02-09T01:34:07.973Z,5.43
2023-02-09T01:36:35.050Z,5.47
2023-02-09T01:39:02.950Z,5.50
2023-02-09T01:41:31.549Z,5.53
2023-02-09T01:44:07.114Z,5.38
2023-02-09T01:46:36.247Z,5.38
2023-02-09T01:49:21.774Z,5.30
2023-02-09T01:51:55.453Z,5.93
2023-02-09T01:57:12.168Z,5.60
2023-02-09T01:59:41.940Z,5.55
2023-02-09T02:02:09.867Z,5.47
2023-02-09T02:04:38.746Z,6.18
2023-02-09T02:07:14.277Z,5.93
2023-02-09T02:09:42.967Z,5.45
2023-02-09T02:12:10.469Z,5.38
2023-02-09T02:14:39.737Z,5.70
2023-02-09T02:17:40.843Z,5.57
2023-02-09T02:20:16.699Z,5.55
2023-02-09T02:23:03.596Z,6.35
2023-02-09T02:25:45.644Z,6.07
2023-02-09T02:28:30.853Z,5.68
2023-02-09T02:31:16.559Z,5.05
2023-02-09T02:34:04.697Z,6.40
2023-02-09T02:36:44.963Z,5.90
2023-02-09T02:39:22.200Z,5.65
2023-02-09T02:42:07.547Z,5.78
2023-02-09T02:44:40.885Z,6.30
2023-02-09T02:47:13.673Z,5.63
2023-02-09T02:49:48.992Z,5.47
2023-02-09T02:52:16.231Z,6.07
2023-02-09T02:54:49.197Z,5.95
2023-02-09T02:57:23.440Z,6.00
2023-02-09T02:59:57.306Z,5.93
2023-02-09T03:02:34.016Z,5.60
2023-02-09T03:05:03.293Z,5.70
2023-02-09T03:07:30.409Z,6.18
2023-02-09T03:09:57.520Z,6.07
2023-02-09T03:12:36.418Z,5.72
2023-02-09T03:15:32.353Z,5.22
2023-02-09T03:18:04.022Z,5.72
2023-02-09T03:20:59.231Z,6.05
2023-02-09T03:23:34.389Z,6.63
2023-02-09T03:26:12.819Z,5.25
2023-02-09T03:28:43.539Z,5.95
2023-02-09T03:31:11.415Z,5.35
2023-02-09T03:33:39.947Z,6.55
2023-02-09T03:36:12.814Z,6.57
2023-02-09T03:38:39.937Z,5.93
2023-02-09T03:41:08.077Z,6.25
2023-02-09T03:43:54.071Z,5.97
2023-02-09T03:46:21.173Z,5.35
2023-02-09T03:48:49.996Z,5.38
2023-02-09T03:51:17.058Z,5.22
2023-02-09T03:53:44.070Z,5.07
2023-02-09T03:56:11.161Z,5.55
2023-02-09T03:58:38.224Z,5.80
2023-02-09T04:01:07.733Z,5.13
2023-02-09T04:03:36.537Z,6.85
2023-02-09T04:06:04.096Z,6.45
2023-02-09T04:08:33.221Z,6.10
2023-02-09T04:11:00.358Z,5.95
2023-02-09T04:13:27.625Z,5.63
2023-02-09T04:15:55.372Z,6.32
2023-02-09T04:18:22.490Z,5.68
2023-02-09T04:20:49.499Z,6.03
2023-02-09T04:23:17.302Z,5.55
2023-02-09T04:25:45.123Z,6.03
2023-02-09T04:28:12.607Z,5.53
2023-02-09T04:30:39.868Z,5.38
2023-02-09T04:33:06.960Z,6.03
2023-02-09T04:35:33.958Z,5.55
2023-02-09T04:38:01.021Z,5.03
2023-02-09T04:40:28.102Z,6.05
2023-02-09T04:42:55.139Z,5.47
2023-02-09T04:45:22.220Z,6.13
2023-02-09T04:47:49.230Z,5.85
2023-02-09T04:50:17.368Z,5.45
2023-02-09T04:52:44.431Z,5.90
2023-02-09T04:55:11.448Z,5.78
2023-02-09T04:57:57.435Z,5.35
2023-02-09T05:00:24.971Z,5.47
2023-02-09T05:02:52.062Z,4.97
2023-02-09T05:05:19.722Z,5.57
2023-02-09T05:07:46.874Z,7.78
2023-02-09T05:10:14.436Z,26.15
2023-02-09T05:12:41.569Z,16.92
2023-02-09T05:15:09.316Z,24.58
2023-02-09T05:17:37.284Z,7.22
2023-02-09T05:20:05.052Z,20.27
2023-02-09T05:22:32.155Z,7.30
2023-02-09T05:24:59.450Z,6.57
2023-02-09T05:27:26.539Z,6.43
2023-02-09T05:29:53.621Z,6.13
2023-02-09T05:32:20.831Z,26.90
2023-02-09T05:34:47.939Z,15.88
2023-02-09T05:37:15.153Z,17.40
2023-02-09T05:39:42.186Z,12.38
2023-02-09T05:42:17.206Z,9.63
2023-02-09T05:44:49.053Z,6.65
2023-02-09T05:47:18.784Z,6.03
2023-02-09T05:49:46.006Z,6.50
2023-02-09T05:52:14.399Z,5.60
2023-02-09T05:54:41.557Z,6.13
2023-02-09T05:57:08.843Z,5.72
2023-02-09T05:59:35.868Z,6.03
2023-02-09T06:02:02.947Z,6.25
2023-02-09T06:04:30.563Z,5.68
2023-02-09T06:06:58.310Z,5.30
2023-02-09T06:09:25.561Z,5.10
2023-02-09T06:11:52.708Z,5.75
2023-02-09T06:14:20.051Z,5.45
2023-02-09T06:16:47.068Z,5.18
2023-02-09T06:19:15.865Z,5.15
2023-02-09T06:21:44.527Z,5.88
2023-02-09T06:24:12.524Z,5.55
2023-02-09T06:26:41.710Z,5.70
2023-02-09T06:29:10.339Z,5.35
2023-02-09T06:31:38.303Z,4.72
2023-02-09T06:34:05.820Z,5.75
2023-02-09T06:36:33.176Z,5.00
2023-02-09T06:39:01.052Z,6.03
2023-02-09T06:41:28.538Z,5.72
2023-02-09T06:43:55.620Z,5.82
2023-02-09T06:46:22.778Z,5.82
2023-02-09T06:48:50.495Z,5.90
2023-02-09T06:51:17.970Z,7.80
2023-02-09T06:53:45.433Z,6.57
2023-02-09T06:56:13.341Z,6.47
2023-02-09T06:58:41.761Z,5.70
2023-02-09T07:01:15.460Z,5.88
2023-02-09T07:03:43.461Z,7.10
2023-02-09T07:06:15.039Z,9.00
2023-02-09T07:08:43.240Z,8.38
2023-02-09T07:11:13.474Z,7.00
2023-02-09T07:13:41.722Z,6.10
2023-02-09T07:16:11.649Z,6.55
2023-02-09T07:18:40.287Z,6.93
2023-02-09T07:21:11.405Z,12.70
2023-02-09T07:23:39.500Z,11.43
2023-02-09T07:26:15.614Z,14.68
2023-02-09T07:28:42.947Z,25.55
2023-02-09T07:31:13.175Z,13.18
2023-02-09T07:33:42.030Z,14.93
2023-02-09T07:36:12.380Z,11.15
2023-02-09T07:38:41.304Z,8.90
2023-02-09T07:41:15.039Z,8.00
2023-02-09T07:43:42.242Z,7.03
2023-02-09T07:46:10.327Z,6.32
2023-02-09T07:48:37.850Z,5.65
2023-02-09T07:51:05.606Z,6.35
2023-02-09T07:53:33.590Z,7.13
2023-02-09T07:56:00.695Z,5.75
2023-02-09T07:58:28.337Z,8.23
2023-02-09T08:00:55.910Z,7.72
2023-02-09T08:03:24.592Z,7.53
2023-02-09T08:06:04.156Z,8.20
2023-02-09T08:08:31.340Z,9.38
2023-02-09T08:11:00.194Z,7.32
2023-02-09T08:13:31.442Z,7.43
2023-02-09T08:16:04.816Z,5.63
2023-02-09T08:18:40.414Z,6.45
2023-02-09T08:21:11.486Z,6.30
2023-02-09T08:23:41.456Z,5.50
2023-02-09T08:26:11.404Z,6.25
2023-02-09T08:28:44.973Z,6.50
2023-02-09T08:31:17.719Z,6.30
2023-02-09T08:33:46.681Z,6.55
2023-02-09T08:36:15.491Z,6.25
2023-02-09T08:38:42.614Z,5.72
2023-02-09T08:41:13.564Z,9.60
2023-02-09T08:43:41.618Z,6.97
2023-02-09T08:46:12.877Z,7.05
2023-02-09T08:48:43.799Z,6.32
2023-02-09T08:51:13.150Z,6.88
2023-02-09T08:53:43.342Z,6.82
2023-02-09T08:56:13.111Z,6.45
2023-02-09T08:58:43.029Z,7.10
2023-02-09T09:01:11.276Z,6.55
2023-02-09T09:03:38.376Z,6.75
2023-02-09T09:06:07.366Z,6.80
2023-02-09T09:08:36.436Z,6.70
2023-02-09T09:11:04.023Z,6.80
2023-02-09T09:13:31.148Z,6.47
2023-02-09T09:15:58.359Z,7.22
2023-02-09T09:18:26.149Z,5.85
2023-02-09T09:20:53.394Z,6.20
2023-02-09T09:23:21.291Z,7.25
2023-02-09T09:25:48.861Z,6.63
2023-02-09T09:28:16.832Z,6.38
2023-02-09T09:30:44.054Z,6.93
2023-02-09T09:33:11.964Z,6.70
2023-02-09T09:35:39.156Z,6.80
2023-02-09T09:38:07.264Z,6.85
2023-02-09T09:40:37.024Z,6.57
2023-02-09T09:43:32.951Z,6.30
2023-02-09T09:46:01.654Z,8.25
2023-02-09T09:48:42.575Z,6.35
2023-02-09T09:51:42.097Z,6.70
2023-02-09T09:54:17.659Z,7.70
2023-02-09T09:56:44.853Z,8.43
2023-02-09T09:59:29.370Z,6.82
2023-02-09T10:02:01.401Z,7.10
2023-02-09T10:04:28.899Z,8.00
2023-02-09T10:07:12.433Z,7.30
2023-02-09T10:09:45.687Z,7.32
2023-02-09T10:12:24.812Z,6.82
2023-02-09T10:14:51.889Z,6.60
2023-02-09T10:17:18.923Z,7.07
2023-02-09T10:20:06.330Z,7.95
2023-02-09T10:22:33.633Z,8.23
2023-02-09T10:25:02.509Z,7.38
2023-02-09T10:27:31.220Z,7.07
2023-02-09T10:30:18.489Z,7.32
2023-02-09T10:32:45.591Z,7.80
2023-02-09T10:35:35.935Z,7.47
2023-02-09T10:38:04.137Z,7.82
2023-02-09T10:40:36.414Z,8.68
2023-02-09T10:43:07.408Z,7.88
2023-02-09T10:45:40.452Z,7.55
2023-02-09T10:48:13.489Z,8.70
2023-02-09T10:50:49.592Z,8.60
2023-02-09T10:53:29.885Z,8.35
2023-02-09T10:56:06.824Z,9.32
2023-02-09T10:58:36.527Z,8.50
2023-02-09T11:01:10.425Z,9.00
2023-02-09T11:03:56.449Z,7.93
2023-02-09T11:06:24.202Z,8.57
2023-02-09T11:09:01.866Z,8.60
2023-02-09T11:11:41.482Z,8.13
2023-02-09T11:14:17.009Z,9.23
2023-02-09T11:16:53.859Z,9.77
2023-02-09T11:19:22.553Z,10.10
2023-02-09T11:22:08.174Z,11.38
2023-02-09T11:24:47.244Z,9.65
2023-02-09T11:27:51.353Z,12.02
2023-02-09T11:30:30.467Z,15.35
2023-02-09T11:33:25.935Z,9.20
2023-02-09T11:36:01.695Z,10.00
2023-02-09T11:38:48.944Z,10.38
2023-02-09T11:41:49.100Z,10.45
2023-02-09T11:44:44.226Z,11.48
2023-02-09T11:47:18.399Z,10.93
2023-02-09T11:49:52.337Z,9.80
2023-02-09T11:52:36.219Z,11.57
2023-02-09T11:55:21.814Z,10.90
2023-02-09T11:57:54.426Z,10.35
2023-02-09T12:00:29.373Z,10.77
2023-02-09T12:03:11.581Z,10.43
2023-02-09T12:05:42.073Z,11.10
2023-02-09T12:08:24.711Z,11.23
2023-02-09T12:11:13.654Z,11.07
2023-02-09T12:13:59.570Z,10.35
2023-02-09T12:16:33.127Z,9.73
2023-02-09T12:19:05.833Z,11.52
2023-02-09T12:21:38.208Z,12.43
2023-02-09T12:24:32.757Z,11.48
2023-02-09T12:26:59.828Z,10.82
2023-02-09T12:29:32.697Z,11.27
2023-02-09T12:32:08.653Z,12.07
2023-02-09T12:34:50.661Z,10.98
2023-02-09T12:37:28.463Z,11.75
2023-02-09T12:40:04.098Z,11.55
2023-02-09T12:43:01.869Z,11.05
2023-02-09T12:45:36.999Z,11.95
2023-02-09T12:48:12.184Z,11.63
2023-02-09T12:50:52.401Z,10.75
2023-02-09T12:53:22.205Z,11.43
2023-02-09T12:56:26.935Z,12.20
2023-02-09T12:59:24.120Z,11.52
2023-02-09T13:02:05.899Z,11.73
2023-02-09T13:04:41.550Z,11.27
2023-02-09T13:07:25.298Z,10.65
2023-02-09T13:09:54.606Z,11.23
2023-02-09T13:12:35.897Z,11.63
2023-02-09T13:15:13.171Z,11.63
2023-02-09T13:18:33.220Z,12.30
2023-02-09T13:21:26.856Z,11.23
2023-02-09T13:24:11.549Z,12.85
2023-02-09T13:26:56.388Z,11.50
2023-02-09T13:29:24.619Z,11.00
2023-02-09T13:31:58.047Z,12.18
2023-02-09T13:35:06.550Z,13.15
2023-02-09T13:37:47.681Z,11.93
2023-02-09T13:40:26.733Z,13.15
2023-02-09T13:42:58.755Z,12.65
2023-02-09T13:45:26.954Z,12.85
2023-02-09T13:47:55.460Z,13.18
2023-02-09T13:50:30.529Z,13.02
2023-02-09T13:53:11.447Z,14.60
2023-02-09T13:55:45.316Z,13.88
2023-02-09T13:58:18.997Z,14.43
2023-02-09T14:00:51.383Z,14.13
2023-02-09T14:03:27.892Z,13.95
2023-02-09T14:05:57.990Z,15.68
2023-02-09T14:08:26.652Z,13.65
2023-02-09T14:11:00.765Z,15.63
2023-02-09T14:13:56.263Z,13.32
2023-02-09T14:16:25.728Z,14.65
2023-02-09T14:18:56.800Z,14.30
2023-02-09T14:21:26.648Z,14.10
2023-02-09T14:23:56.392Z,13.27
2023-02-09T14:26:26.068Z,15.82
2023-02-09T14:29:06.777Z,14.43
2023-02-09T14:31:35.184Z,15.20
2023-02-09T14:34:02.600Z,13.77
2023-02-09T14:36:33.578Z,14.25
2023-02-09T14:39:05.655Z,17.10
2023-02-09T14:41:34.618Z,16.23
2023-02-09T14:44:07.482Z,15.50
2023-02-09T14:46:55.657Z,14.77
2023-02-09T14:49:23.724Z,15.07
2023-02-09T14:52:01.457Z,15.10
2023-02-09T14:54:32.284Z,15.73
2023-02-09T14:57:01.202Z,15.35
2023-02-09T14:59:28.584Z,15.68
2023-02-09T15:01:55.969Z,15.45
2023-02-09T15:04:23.343Z,15.25
2023-02-09T15:07:00.268Z,15.70
2023-02-09T15:09:34.607Z,16.08
2023-02-09T15:12:05.851Z,16.02
2023-02-09T15:14:37.881Z,15.63
2023-02-09T15:17:18.292Z,14.60
2023-02-09T15:19:46.353Z,15.50
2023-02-09T15:22:16.178Z,15.25
2023-02-09T15:24:44.827Z,15.18
2023-02-09T15:27:25.969Z,15.02
2023-02-09T15:29:56.589Z,16.30
2023-02-09T15:32:25.800Z,15.45
2023-02-09T15:34:53.858Z,17.33
2023-02-09T15:37:32.938Z,17.27
2023-02-09T15:40:04.186Z,19.15
2023-02-09T15:42:50.043Z,17.83
2023-02-09T15:45:41.395Z,17.70
2023-02-09T15:48:08.975Z,17.33
2023-02-09T15:50:47.811Z,18.45
2023-02-09T15:53:18.591Z,17.35
2023-02-09T15:55:46.744Z,18.42
2023-02-09T15:58:16.576Z,18.52
2023-02-09T16:00:43.996Z,18.73
2023-02-09T16:03:17.630Z,19.10
2023-02-09T16:05:46.253Z,18.65
2023-02-09T16:08:26.007Z,18.77
2023-02-09T16:10:54.266Z,19.65
2023-02-09T16:13:21.384Z,18.40
2023-02-09T16:15:48.763Z,19.33
2023-02-09T16:18:15.902Z,20.70
2023-02-09T16:20:49.811Z,19.42
2023-02-09T16:23:21.520Z,20.08
2023-02-09T16:25:51.581Z,19.67
2023-02-09T16:28:20.300Z,19.20
2023-02-09T16:30:58.177Z,19.73
2023-02-09T16:33:26.507Z,19.50
2023-02-09T16:35:59.745Z,19.70
2023-02-09T16:38:27.596Z,22.23
2023-02-09T16:40:55.709Z,20.05
2023-02-09T16:43:23.479Z,19.27
2023-02-09T16:46:02.830Z,20.92
2023-02-09T16:48:34.464Z,21.50
2023-02-09T16:51:02.232Z,20.13
2023-02-09T16:53:37.223Z,20.15
2023-02-09T16:56:10.473Z,19.50
2023-02-09T16:58:38.416Z,20.15
2023-02-09T17:01:14.474Z,19.92
2023-02-09T17:03:43.553Z,21.27
2023-02-09T17:06:17.753Z,22.67
2023-02-09T17:08:44.889Z,20.88
2023-02-09T17:11:23.413Z,21.73
2023-02-09T17:13:50.681Z,20.70
2023-02-09T17:16:27.442Z,23.50
2023-02-09T17:18:58.818Z,20.20
2023-02-09T17:21:34.876Z,21.45
2023-02-09T17:24:05.103Z,21.52
2023-02-09T17:26:32.244Z,20.52
2023-02-09T17:28:59.734Z,20.77
2023-02-09T17:31:30.527Z,22.17
2023-02-09T17:34:01.489Z,22.90
2023-02-09T17:36:30.656Z,22.13
2023-02-09T17:38:59.584Z,21.73
2023-02-09T17:41:41.939Z,21.02
2023-02-09T17:44:35.301Z,22.70
2023-02-09T17:47:15.304Z,22.58
2023-02-09T17:49:42.459Z,22.17
2023-02-09T17:52:18.430Z,22.77
2023-02-09T17:54:45.958Z,23.17
2023-02-09T17:57:17.037Z,22.52
2023-02-09T17:59:44.411Z,23.60
2023-02-09T18:02:16.517Z,24.35
2023-02-09T18:04:44.122Z,23.42
2023-02-09T18:07:20.065Z,23.80
2023-02-09T18:09:47.349Z,21.73
2023-02-09T18:12:20.844Z,27.02
2023-02-09T18:14:48.374Z,24.23
2023-02-09T18:17:15.523Z,24.20
2023-02-09T18:19:42.636Z,26.63
2023-02-09T18:22:13.791Z,26.85
2023-02-09T18:24:41.774Z,26.27
2023-02-09T18:27:14.650Z,29.05
2023-02-09T18:29:41.716Z,26.02
2023-02-09T18:32:12.616Z,24.27
2023-02-09T18:34:40.344Z,24.13
2023-02-09T18:37:07.405Z,23.40
2023-02-09T18:39:41.178Z,24.98
2023-02-09T18:44:38.259Z,25.08
2023-02-09T18:47:05.778Z,24.77
2023-02-09T18:49:32.880Z,27.13
2023-02-09T18:52:00.764Z,25.45
2023-02-09T18:54:29.207Z,25.85
2023-02-09T18:56:56.410Z,24.95
2023-02-09T18:59:27.867Z,28.65
2023-02-09T19:01:55.072Z,27.77
2023-02-09T19:04:22.151Z,26.90
2023-02-09T19:06:49.275Z,28.58
2023-02-09T19:09:16.400Z,31.75
2023-02-09T19:11:43.585Z,27.75
2023-02-09T19:14:29.804Z,29.63
2023-02-09T19:16:56.914Z,29.38
2023-02-09T19:19:24.542Z,33.38
2023-02-09T19:21:52.172Z,29.70
2023-02-09T19:24:19.224Z,28.45
2023-02-09T19:26:46.295Z,27.77
2023-02-09T19:29:14.004Z,28.65
2023-02-09T19:31:41.670Z,29.05
2023-02-09T19:34:08.749Z,29.27
2023-02-09T19:36:35.844Z,28.30
2023-02-09T19:39:03.153Z,31.85
2023-02-09T19:41:30.253Z,29.30
2023-02-09T19:43:58.150Z,29.77
2023-02-09T19:46:25.510Z,28.15
2023-02-09T19:48:53.764Z,31.27
2023-02-09T19:51:21.436Z,30.13
2023-02-09T19:53:49.212Z,28.73
2023-02-09T19:56:19.283Z,30.65
2023-02-09T19:58:46.655Z,28.23
2023-02-09T20:01:13.752Z,27.40
2023-02-09T20:03:41.774Z,29.20
2023-02-09T20:06:12.270Z,30.30
2023-02-09T20:08:40.378Z,30.05
2023-02-09T20:11:11.534Z,29.90
2023-02-09T20:13:40.319Z,36.35
2023-02-09T20:16:13.524Z,29.27
2023-02-09T20:18:43.442Z,27.70
2023-02-09T20:21:12.238Z,32.15
2023-02-09T20:23:40.402Z,31.38
2023-02-09T20:26:12.992Z,32.13
2023-02-09T20:28:41.261Z,32.72
2023-02-09T20:31:09.370Z,32.28
2023-02-09T20:33:38.438Z,30.83
2023-02-09T20:36:07.714Z,33.42
2023-02-09T20:38:36.526Z,30.85
2023-02-09T20:41:10.342Z,37.50
2023-02-09T20:43:57.464Z,27.45
2023-02-09T20:46:45.149Z,25.13
2023-02-09T20:49:14.675Z,25.10
2023-02-09T20:51:42.432Z,26.13
2023-02-09T20:54:10.326Z,27.58
2023-02-09T20:56:38.414Z,27.40
2023-02-09T20:59:06.833Z,25.42
2023-02-09T21:01:36.467Z,25.88
2023-02-09T21:04:03.813Z,26.88
2023-02-09T21:06:30.885Z,27.85
2023-02-09T21:08:58.366Z,27.80
2023-02-09T21:11:25.450Z,28.85
2023-02-09T21:13:52.598Z,26.70
2023-02-09T21:16:20.518Z,24.73
2023-02-09T21:18:47.620Z,24.70
2023-02-09T21:21:17.015Z,27.38
2023-02-09T21:23:45.676Z,29.42
2023-02-09T21:26:16.435Z,26.05
2023-02-09T21:28:43.907Z,26.98
2023-02-09T21:31:17.002Z,26.75
2023-02-09T21:33:44.241Z,27.83
2023-02-09T21:36:11.720Z,23.83
2023-02-09T21:38:41.645Z,24.73
2023-02-09T21:41:34.994Z,23.90
2023-02-09T21:44:02.524Z,25.48
2023-02-09T21:46:29.893Z,26.38
2023-02-09T21:48:57.056Z,26.52
2023-02-09T21:51:24.349Z,28.90
2023-02-09T21:53:51.975Z,28.20
2023-02-09T21:56:19.447Z,30.52
2023-02-09T21:58:46.843Z,28.80
2023-02-09T22:01:14.001Z,24.30
2023-02-09T22:03:44.579Z,22.90
2023-02-09T22:06:11.783Z,21.58
2023-02-09T22:08:38.971Z,22.65
2023-02-09T22:11:06.201Z,21.58
2023-02-09T22:13:33.737Z,20.88
2023-02-09T22:16:06.189Z,22.60
2023-02-09T22:18:33.854Z,21.17
2023-02-09T22:21:01.225Z,23.02
2023-02-09T22:23:28.896Z,22.30
2023-02-09T22:26:00.806Z,22.05
2023-02-09T22:28:29.034Z,24.25
2023-02-09T22:30:56.585Z,20.83
2023-02-09T22:33:24.062Z,20.77
2023-02-09T22:35:51.142Z,21.35
2023-02-09T22:38:18.170Z,19.30
2023-02-09T22:40:45.227Z,18.05
2023-02-09T22:43:12.302Z,18.75
2023-02-09T22:45:40.269Z,19.98
2023-02-09T22:48:07.621Z,18.10
2023-02-09T22:50:35.347Z,18.13
2023-02-09T22:53:02.648Z,16.55
2023-02-09T22:55:29.715Z,18.30
2023-02-09T22:57:56.776Z,17.15
2023-02-09T23:00:23.909Z,18.65
2023-02-09T23:02:51.070Z,17.00
2023-02-09T23:05:18.203Z,16.20
2023-02-09T23:07:46.311Z,14.35
2023-02-09T23:10:13.756Z,16.80
2023-02-09T23:12:42.553Z,15.88
2023-02-09T23:15:10.440Z,15.85
2023-02-09T23:17:37.546Z,14.30
2023-02-09T23:20:04.811Z,14.63
2023-02-09T23:22:31.855Z,13.43
2023-02-09T23:25:01.500Z,12.82
2023-02-09T23:27:29.235Z,13.20
2023-02-09T23:29:56.280Z,12.73
2023-02-09T23:32:23.324Z,12.65
2023-02-09T23:34:50.414Z,12.50
2023-02-09T23:37:23.678Z,12.55
2023-02-09T23:40:01.983Z,11.50
2023-02-09T23:42:29.337Z,12.18
2023-02-09T23:44:56.475Z,12.68
2023-02-09T23:47:23.531Z,11.85
2023-02-09T23:49:50.688Z,11.20
2023-02-09T23:52:17.791Z,12.10
2023-02-09T23:54:44.849Z,11.80
2023-02-09T23:57:11.991Z,11.00
2023-02-09T23:59:39.094Z,10.52
